Time;durP1;ratioP1;P1;durP2;ratioP2;P2;SDS_P1;SDS_P2;PMS_P1;PMS_P2;Temp;Humidity;BMP_temperature;BMP_pressure;BME280_temperature;BME280_humidity;BME280_pressure;Samples;Min_cycle;Max_cycle;Signal;HPM_P1;HPM_P2
2023/10/20 00:02:31;;;;;;;11.78;8.60;;;;;;;6.30;100.00;98965.39;4881257;57;1139313;-69
2023/10/20 00:07:40;;;;;;;13.80;8.60;;;;;;;6.28;100.00;98952.39;4792392;59;1139084;-72
2023/10/20 00:12:45;;;;;;;12.70;8.43;;;;;;;6.29;100.00;98950.13;4807179;57;1138883;-73
2023/10/20 00:17:51;;;;;;;12.97;9.83;;;;;;;6.27;100.00;98928.41;4812087;60;1138818;-75
2023/10/20 00:22:57;;;;;;;14.77;9.10;;;;;;;6.24;100.00;98923.45;4913094;57;1138895;-77
2023/10/20 00:28:03;;;;;;;11.67;8.47;;;;;;;6.22;100.00;98918.80;4790608;59;1138811;-77
2023/10/20 00:33:09;;;;;;;13.50;9.47;;;;;;;6.22;100.00;98925.37;4779690;60;1138988;-76
2023/10/20 00:38:14;;;;;;;13.27;9.93;;;;;;;6.21;100.00;98907.95;4731515;59;1138770;-75
2023/10/20 00:43:20;;;;;;;13.90;8.97;;;;;;;6.18;100.00;98908.20;4732993;59;1138851;-74
2023/10/20 00:48:26;;;;;;;14.75;9.28;;;;;;;6.18;100.00;98909.52;4682287;60;1138912;-75
2023/10/20 00:53:32;;;;;;;11.38;8.60;;;;;;;6.13;100.00;98910.86;4733607;60;1139065;-78
2023/10/20 00:58:37;;;;;;;10.17;6.63;;;;;;;6.11;100.00;98914.13;4860462;57;1138823;-75
2023/10/20 01:03:44;;;;;;;11.08;7.17;;;;;;;6.11;100.00;98906.25;4791029;59;1139029;-76
2023/10/20 01:08:56;;;;;;;13.20;9.17;;;;;;;6.09;100.00;98902.92;5000573;57;1138794;-73
2023/10/20 01:14:01;;;;;;;13.43;9.00;;;;;;;6.06;100.00;98918.92;4900064;57;1138758;-75
2023/10/20 01:19:07;;;;;;;16.37;9.17;;;;;;;6.03;100.00;98919.17;4895382;58;1138724;-76
2023/10/20 01:24:12;;;;;;;11.97;7.70;;;;;;;6.02;100.00;98917.51;4876800;59;1139808;-72
2023/10/20 01:29:18;;;;;;;12.50;7.10;;;;;;;5.98;100.00;98919.55;4844634;59;1138680;-72
2023/10/20 01:34:23;;;;;;;8.03;6.47;;;;;;;5.94;100.00;98920.31;4873325;58;1139112;-73
2023/10/20 01:39:32;;;;;;;7.73;6.30;;;;;;;5.93;100.00;98913.88;4813378;59;1136863;-78
2023/10/20 01:44:38;;;;;;;8.75;6.33;;;;;;;5.91;100.00;98911.37;4796908;58;1136759;-75
2023/10/20 01:49:44;;;;;;;7.20;5.60;;;;;;;5.90;100.00;98903.63;4795778;60;1136868;-75
2023/10/20 01:54:49;;;;;;;8.37;6.67;;;;;;;5.91;100.00;98920.56;4724726;60;1136982;-74
2023/10/20 01:59:56;;;;;;;9.60;5.57;;;;;;;5.90;100.00;98916.75;4907760;56;1136931;-70
2023/10/20 02:05:03;;;;;;;8.77;4.97;;;;;;;5.90;100.00;98909.72;4926221;56;1136683;-74
2023/10/20 02:10:10;;;;;;;7.07;4.97;;;;;;;5.91;100.00;98904.82;5008591;57;1136602;-73
2023/10/20 02:15:15;;;;;;;7.50;4.80;;;;;;;5.92;100.00;98892.53;4927890;58;1136862;-73
2023/10/20 02:20:23;;;;;;;5.20;3.67;;;;;;;5.88;100.00;98903.76;4791120;58;1136614;-73
2023/10/20 02:25:28;;;;;;;5.97;4.47;;;;;;;5.84;100.00;98900.17;4818048;58;1136870;-74
2023/10/20 02:30:34;;;;;;;5.25;3.65;;;;;;;5.83;100.00;98908.52;4904095;58;1136841;-74
2023/10/20 02:35:41;;;;;;;2.58;2.37;;;;;;;5.88;100.00;98903.76;4890613;57;1136836;-75
2023/10/20 02:40:57;;;;;;;3.77;3.47;;;;;;;5.85;100.00;98876.44;4924805;57;1136875;-74
2023/10/20 02:46:03;;;;;;;4.80;3.00;;;;;;;5.80;100.00;98879.95;4901642;57;1136629;-76
2023/10/20 02:51:17;;;;;;;3.33;3.00;;;;;;;5.80;100.00;98886.50;4907971;57;1136689;-76
2023/10/20 02:56:23;;;;;;;3.33;2.27;;;;;;;5.81;100.00;98867.15;4810115;58;1136676;-71
2023/10/20 03:01:30;;;;;;;4.10;3.20;;;;;;;5.79;100.00;98866.95;4909611;56;1139611;-77
2023/10/20 03:06:36;;;;;;;3.17;2.70;;;;;;;5.75;100.00;98870.31;4951606;56;1136927;-73
2023/10/20 03:11:43;;;;;;;2.50;2.30;;;;;;;5.71;100.00;98870.69;4982234;56;1136746;-70
2023/10/20 03:16:49;;;;;;;2.87;2.53;;;;;;;5.66;100.00;98864.50;4931870;57;1136764;-72
2023/10/20 03:21:55;;;;;;;2.30;2.10;;;;;;;5.66;100.00;98864.50;4791492;57;1136607;-73
2023/10/20 03:27:01;;;;;;;2.93;2.47;;;;;;;5.69;100.00;98864.73;4792364;58;1136718;-75
2023/10/20 03:32:07;;;;;;;1.80;1.70;;;;;;;5.67;100.00;98862.23;4913809;57;1136881;-76
2023/10/20 03:37:13;;;;;;;1.97;1.80;;;;;;;5.63;100.00;98859.06;4791090;58;1137597;-75
2023/10/20 03:42:19;;;;;;;5.00;1.93;;;;;;;5.63;100.00;98852.98;4796964;60;1136627;-74
2023/10/20 03:47:27;;;;;;;3.00;2.00;;;;;;;5.62;100.00;98858.70;4727425;60;1136653;-74
2023/10/20 03:52:32;;;;;;;1.77;1.67;;;;;;;5.66;100.00;98860.56;4906591;57;1136600;-76
2023/10/20 03:57:40;;;;;;;3.03;1.60;;;;;;;5.62;100.00;98850.00;4912252;57;1136877;-73
2023/10/20 04:02:47;;;;;;;1.85;1.70;;;;;;;5.59;100.00;98848.95;4850027;58;1136864;-75
2023/10/20 04:07:53;;;;;;;1.53;1.40;;;;;;;5.54;100.00;98836.21;4911168;58;1137346;-82
2023/10/20 04:12:59;;;;;;;1.63;1.53;;;;;;;5.53;100.00;98822.74;4873752;58;1137090;-70
2023/10/20 04:18:05;;;;;;;1.63;1.53;;;;;;;5.54;100.00;98830.13;4715132;60;1137160;-73
2023/10/20 04:23:12;;;;;;;1.80;1.70;;;;;;;5.58;100.00;98826.30;4811150;59;1136885;-75
2023/10/20 04:28:20;;;;;;;1.47;1.40;;;;;;;5.57;100.00;98826.78;4912355;57;1136949;-75
2023/10/20 05:10:33;;;;;;;4.58;2.08;;;;;;;5.54;100.00;98819.64;4913031;58;1146243;-73
2023/10/20 05:15:43;;;;;;;6.73;2.70;;;;;;;5.53;100.00;98824.53;4790254;59;1136695;-73
2023/10/20 05:20:49;;;;;;;2.58;1.77;;;;;;;5.54;100.00;98820.48;4913906;57;1136884;-75
2023/10/20 05:25:54;;;;;;;1.77;1.67;;;;;;;5.50;100.00;98817.75;4931628;57;1136702;-80
2023/10/20 05:31:00;;;;;;;1.60;1.50;;;;;;;5.50;100.00;98799.40;4905969;58;1136836;-75
2023/10/20 05:36:06;;;;;;;3.17;1.80;;;;;;;5.47;100.00;98803.61;4787644;59;1136524;-70
2023/10/20 05:41:14;;;;;;;2.10;2.00;;;;;;;5.50;100.00;98810.39;4808954;59;1136627;-75
2023/10/20 05:46:20;;;;;;;2.00;1.80;;;;;;;5.54;100.00;98815.71;4725056;60;1136903;-77
2023/10/20 05:51:26;;;;;;;1.77;1.67;;;;;;;5.54;100.00;98813.09;4870449;57;1137624;-76
2023/10/20 05:56:32;;;;;;;2.33;1.73;;;;;;;5.56;100.00;98824.28;4909665;57;1137112;-77
2023/10/20 06:01:37;;;;;;;4.57;2.10;;;;;;;5.57;100.00;98828.57;4906305;57;1136643;-71
2023/10/20 06:06:43;;;;;;;1.67;1.57;;;;;;;5.52;100.00;98809.28;4735853;59;1136745;-78
2023/10/20 06:11:49;;;;;;;2.30;2.17;;;;;;;5.54;100.00;98813.09;4805738;60;1136739;-76
2023/10/20 06:16:55;;;;;;;6.10;2.30;;;;;;;5.55;100.00;98805.09;4913626;58;1136610;-73
2023/10/20 06:22:00;;;;;;;1.90;1.80;;;;;;;5.55;100.00;98797.70;4798260;59;1136720;-76
2023/10/20 06:27:06;;;;;;;5.23;2.03;;;;;;;5.50;100.00;98800.70;4744024;60;1137293;-78
2023/10/20 06:37:31;;;;;;;6.00;2.40;;;;;;;5.54;100.00;98792.94;4708070;59;1136986;-82
2023/10/20 06:42:30;;;;;;;2.85;2.62;;;;;;;5.53;100.00;98774.72;4730127;60;1136876;-75
2023/10/20 06:47:36;;;;;;;4.97;2.10;;;;;;;5.49;100.00;98794.31;4787833;60;1136805;-72
2023/10/20 06:52:41;;;;;;;2.60;1.87;;;;;;;5.50;100.00;98794.66;4791702;59;1137157;-85
2023/10/20 06:57:48;;;;;;;2.12;1.92;;;;;;;5.52;100.00;98784.85;4756617;60;1137203;-79
2023/10/20 07:02:54;;;;;;;2.37;1.80;;;;;;;5.52;100.00;98784.85;4827964;58;1137670;-74
2023/10/20 07:07:59;;;;;;;5.30;2.00;;;;;;;5.49;100.00;98787.76;4821591;58;1137019;-77
2023/10/20 07:13:15;;;;;;;6.00;2.17;;;;;;;5.49;100.00;98785.13;4868350;58;1136781;-76
2023/10/20 07:18:16;;;;;;;2.93;1.80;;;;;;;5.50;100.00;98771.06;4762581;58;1136653;-72
2023/10/20 07:23:22;;;;;;;2.07;1.67;;;;;;;5.50;100.00;98754.02;4733274;59;1136839;-80
2023/10/20 07:28:27;;;;;;;2.73;2.33;;;;;;;5.48;100.00;98746.77;4910586;58;1136951;-68
2023/10/20 07:33:33;;;;;;;4.17;1.67;;;;;;;5.49;100.00;98744.02;4907549;57;1136728;-80
2023/10/20 07:38:38;;;;;;;2.52;1.87;;;;;;;5.50;100.00;98764.52;4792541;58;1136906;-77
2023/10/20 07:43:44;;;;;;;3.05;2.12;;;;;;;5.47;100.00;98759.04;4715670;60;1136622;-82
2023/10/20 07:48:50;;;;;;;3.77;1.67;;;;;;;5.50;100.00;98769.76;4770862;59;1136692;-78
2023/10/20 07:53:56;;;;;;;2.93;2.50;;;;;;;5.49;100.00;98744.50;4734712;58;1136905;-71
2023/10/20 07:59:01;;;;;;;12.30;5.97;;;;;;;5.50;100.00;98739.61;4662357;60;1136743;-79
2023/10/20 08:04:07;;;;;;;4.67;3.73;;;;;;;5.44;100.00;98734.39;4681453;60;1138968;-76
2023/10/20 08:09:13;;;;;;;1.90;1.70;;;;;;;5.43;100.00;98745.83;4661876;60;1136693;-76
2023/10/20 08:14:20;;;;;;;2.87;2.27;;;;;;;5.47;100.00;98750.34;4724431;59;1136691;-77
2023/10/20 08:19:25;;;;;;;6.47;2.63;;;;;;;5.51;100.00;98749.09;4927015;57;1137093;-77
2023/10/20 08:24:32;;;;;;;2.70;2.30;;;;;;;5.55;100.00;98742.64;4791256;60;1136711;-76
2023/10/20 08:29:39;;;;;;;3.60;2.30;;;;;;;5.51;100.00;98724.19;4743718;59;1136709;-77
2023/10/20 08:34:45;;;;;;;7.92;4.55;;;;;;;5.47;100.00;98728.06;4872203;58;1136589;-70
2023/10/20 08:39:50;;;;;;;6.95;4.00;;;;;;;5.42;100.00;98708.78;4812207;59;1136609;-72
2023/10/20 08:44:56;;;;;;;4.25;2.87;;;;;;;5.46;100.00;98712.81;4792606;59;1136966;-79
2023/10/20 08:50:02;;;;;;;3.97;2.70;;;;;;;5.44;100.00;98719.14;4735404;58;1136584;-75
2023/10/20 08:55:08;;;;;;;8.37;4.13;;;;;;;5.47;100.00;98718.88;4741000;59;1137153;-80
2023/10/20 09:00:20;;;;;;;4.77;3.63;;;;;;;5.35;100.00;98690.59;4815278;58;1136847;-77
2023/10/20 09:05:22;;;;;;;7.97;3.80;;;;;;;5.45;100.00;98682.78;4814795;57;1136729;-80
2023/10/20 09:10:27;;;;;;;3.43;3.13;;;;;;;5.42;100.00;98709.26;4880760;58;1136964;-72
2023/10/20 09:15:33;;;;;;;7.53;4.97;;;;;;;5.38;100.00;98724.89;4783786;58;1136705;-82
2023/10/20 09:20:39;;;;;;;5.70;4.33;;;;;;;5.38;100.00;98696.89;4869696;58;1137826;-78
2023/10/20 09:25:44;;;;;;;6.53;2.70;;;;;;;5.35;100.00;98693.20;4791690;59;1136873;-74
2023/10/20 09:30:50;;;;;;;3.97;2.97;;;;;;;5.35;100.00;98681.92;4809951;58;1136758;-77
2023/10/20 09:35:57;;;;;;;5.92;3.00;;;;;;;5.32;100.00;98674.31;4908922;58;1173222;-77
2023/10/20 09:41:11;;;;;;;4.97;3.53;;;;;;;5.34;100.00;98667.98;4847872;58;1136820;-73
2023/10/20 09:46:29;;;;;;;10.37;4.83;;;;;;;5.37;100.00;98671.63;4914272;57;1136877;-80
2023/10/20 09:51:36;;;;;;;11.90;6.55;;;;;;;5.36;100.00;98657.34;4840720;57;1138723;-77
2023/10/20 09:56:45;;;;;;;6.67;4.70;;;;;;;5.32;100.00;98670.39;4876584;57;1138851;-79
2023/10/20 10:01:55;;;;;;;8.45;6.65;;;;;;;5.33;100.00;98668.95;4887347;57;1136880;-74
2023/10/20 10:07:05;;;;;;;4.80;3.80;;;;;;;5.35;100.00;98676.17;4860327;58;1136563;-79
2023/10/20 10:12:20;;;;;;;6.67;4.87;;;;;;;5.37;100.00;98681.28;4716692;59;1136856;-72
2023/10/20 10:17:26;;;;;;;6.43;3.73;;;;;;;5.34;100.00;98687.64;4913847;57;1136747;-75
2023/10/20 10:22:32;;;;;;;4.60;3.47;;;;;;;5.32;100.00;98674.31;4808576;59;1136886;-80
2023/10/20 10:27:39;;;;;;;9.37;5.23;;;;;;;5.33;100.00;98661.56;4774293;59;1136812;-72
2023/10/20 10:32:47;;;;;;;9.24;7.94;;;;;;;5.30;100.00;98662.65;4791007;59;1136891;-70
2023/10/20 10:37:53;;;;;;;3.67;3.33;;;;;;;5.34;100.00;98669.30;4979431;57;1235823;-80
2023/10/20 10:42:59;;;;;;;7.67;5.57;;;;;;;5.34;100.00;98671.09;4980516;56;1243306;-69
2023/10/20 10:48:15;;;;;;;5.50;3.50;;;;;;;5.34;100.00;98656.67;4986958;56;1236070;-74
2023/10/20 10:53:20;;;;;;;4.83;3.50;;;;;;;5.29;100.00;98643.47;5004978;57;1136730;-83
2023/10/20 10:58:26;;;;;;;6.90;3.80;;;;;;;5.26;100.00;98632.41;4987774;57;1166971;-73
2023/10/20 11:03:32;;;;;;;3.70;3.00;;;;;;;5.22;100.00;98621.83;4938970;57;1252709;-81
2023/10/20 11:08:40;;;;;;;7.80;4.22;;;;;;;5.23;100.00;98611.22;4794995;59;1254755;-74
2023/10/20 11:13:46;;;;;;;7.78;4.12;;;;;;;5.22;100.00;98609.56;4787986;60;1239940;-80
2023/10/20 11:18:52;;;;;;;7.97;3.17;;;;;;;5.24;100.00;98619.92;4901696;57;1249234;-83
2023/10/20 11:23:57;;;;;;;8.97;3.00;;;;;;;5.24;100.00;98606.33;4914965;58;1253250;-69
2023/10/20 11:29:09;;;;;;;5.70;2.97;;;;;;;5.24;100.00;98624.68;4808187;58;1255108;-78
2023/10/20 11:34:15;;;;;;;4.77;3.63;;;;;;;5.20;100.00;98610.65;4755312;58;1177176;-71
2023/10/20 11:39:24;;;;;;;4.03;3.00;;;;;;;5.15;100.00;98603.69;4829757;58;1137563;-78
2023/10/20 11:44:28;;;;;;;3.87;3.43;;;;;;;5.14;100.00;98607.27;4841750;58;1136955;-75
2023/10/20 11:49:33;;;;;;;4.87;3.87;;;;;;;5.14;100.00;98612.02;4818076;58;1250357;-72
2023/10/20 11:54:39;;;;;;;9.00;5.20;;;;;;;5.15;100.00;98613.69;4820880;58;1136757;-70
2023/10/20 11:59:45;;;;;;;7.67;4.53;;;;;;;5.12;100.00;98632.77;4867146;58;1224493;-73
2023/10/20 12:04:50;;;;;;;5.60;4.03;;;;;;;5.15;100.00;98627.27;4806997;60;1136864;-80
2023/10/20 12:09:56;;;;;;;7.58;5.17;;;;;;;5.17;100.00;98614.87;4903046;57;1137089;-77
2023/10/20 12:15:02;;;;;;;7.00;5.83;;;;;;;5.16;100.00;98607.97;4782891;58;1137661;-74
2023/10/20 12:20:09;;;;;;;13.97;10.60;;;;;;;5.13;100.00;98614.77;4809846;59;1136879;-75
2023/10/20 12:25:15;;;;;;;5.50;4.60;;;;;;;5.12;100.00;98628.36;4789039;58;1140980;-76
2023/10/20 12:30:21;;;;;;;4.70;3.80;;;;;;;5.14;100.00;98619.89;4854735;56;1225216;-74
2023/10/20 12:35:26;;;;;;;6.53;3.83;;;;;;;5.11;100.00;98604.42;4885514;59;1155672;-80
2023/10/20 12:40:33;;;;;;;15.70;7.47;;;;;;;5.10;100.00;98590.97;4869680;58;1137002;-76
2023/10/20 12:45:39;;;;;;;6.57;4.33;;;;;;;5.09;100.00;98580.14;4789540;59;1138952;-72
2023/10/20 12:50:45;;;;;;;7.70;3.22;;;;;;;5.07;100.00;98572.89;4795454;59;1134894;-74
2023/10/20 12:55:55;;;;;;;5.20;2.83;;;;;;;5.04;100.00;98568.41;4729038;60;1134584;-79
2023/10/20 13:01:00;;;;;;;2.83;2.17;;;;;;;5.02;100.00;98563.78;4916173;57;1135061;-78
2023/10/20 13:06:06;;;;;;;3.87;3.47;;;;;;;5.01;100.00;98572.12;4791225;59;1134673;-74
2023/10/20 13:11:12;;;;;;;3.90;2.87;;;;;;;5.03;100.00;98562.83;4809089;58;1136565;-74
2023/10/20 13:16:18;;;;;;;3.73;2.63;;;;;;;5.03;100.00;98556.28;4785005;57;1136678;-79
2023/10/20 13:21:24;;;;;;;3.23;2.53;;;;;;;5.02;100.00;98554.14;4737055;59;1136674;-73
2023/10/20 13:26:30;;;;;;;7.03;4.37;;;;;;;4.98;100.00;98556.66;4903486;58;1136705;-80
2023/10/20 13:31:36;;;;;;;3.67;2.87;;;;;;;4.97;100.00;98543.21;4870421;58;1136814;-73
2023/10/20 13:36:41;;;;;;;3.80;2.90;;;;;;;4.92;100.00;98549.31;4868119;57;1136666;-72
2023/10/20 13:41:47;;;;;;;1.95;1.72;;;;;;;4.89;100.00;98555.64;4816831;57;1136926;-73
2023/10/20 13:46:53;;;;;;;2.55;2.02;;;;;;;4.84;100.00;98549.16;4876732;57;1134393;-78
2023/10/20 13:51:58;;;;;;;4.00;2.70;;;;;;;4.84;100.00;98550.47;4889774;57;1134602;-71
2023/10/20 13:57:04;;;;;;;3.60;2.67;;;;;;;4.81;100.00;98549.41;4791283;58;1134796;-77
2023/10/20 14:02:10;;;;;;;3.67;2.17;;;;;;;4.77;100.00;98553.24;4809751;60;1136890;-79
2023/10/20 14:07:15;;;;;;;3.83;3.10;;;;;;;4.75;100.00;98538.97;4909993;58;1134640;-78
2023/10/20 14:12:21;;;;;;;4.70;3.13;;;;;;;4.76;100.00;98547.17;4791990;58;1136796;-82
2023/10/20 14:17:26;;;;;;;5.97;3.73;;;;;;;4.75;100.00;98537.66;4809827;58;1136833;-70
2023/10/20 14:22:32;;;;;;;7.63;3.30;;;;;;;4.74;100.00;98543.86;4749827;58;1136835;-75
2023/10/20 14:27:38;;;;;;;4.63;3.00;;;;;;;4.72;100.00;98532.71;4733482;58;1136930;-68
2023/10/20 14:32:44;;;;;;;4.08;2.50;;;;;;;4.73;100.00;98524.38;4762928;59;1139044;-68
2023/10/20 14:37:49;;;;;;;3.70;2.47;;;;;;;4.72;100.00;98527.47;4762588;60;1137096;-67
2023/10/20 14:42:55;;;;;;;3.47;2.85;;;;;;;4.70;100.00;98535.94;4753287;59;1136461;-80
2023/10/20 14:48:00;;;;;;;3.20;2.33;;;;;;;4.73;100.00;98545.32;4893751;58;1136860;-79
2023/10/20 14:53:06;;;;;;;2.47;2.23;;;;;;;4.72;100.00;98551.04;4766774;59;1136642;-75
2023/10/20 14:58:17;;;;;;;3.73;2.73;;;;;;;4.72;100.00;98531.88;4791934;57;1136962;-71
2023/10/20 15:03:20;;;;;;;2.62;2.42;;;;;;;4.69;100.00;98521.66;4763595;58;1136593;-77
2023/10/20 15:08:26;;;;;;;6.50;3.80;;;;;;;4.64;100.00;98512.05;4929753;57;1136533;-74
2023/10/20 15:13:32;;;;;;;2.63;2.43;;;;;;;4.67;100.00;98507.86;4791402;58;1136679;-71
2023/10/20 15:18:38;;;;;;;2.63;2.30;;;;;;;4.63;100.00;98509.91;4750022;60;1134913;-75
2023/10/20 15:23:43;;;;;;;5.15;2.67;;;;;;;4.58;100.00;98517.34;4734224;59;1134797;-73
2023/10/20 15:28:49;;;;;;;6.93;4.00;;;;;;;4.56;100.00;98525.33;4910985;57;1134661;-72
2023/10/20 15:33:55;;;;;;;3.47;3.17;;;;;;;4.59;100.00;98528.14;4783484;59;1136669;-74
2023/10/20 15:39:00;;;;;;;3.87;2.80;;;;;;;4.61;100.00;98528.84;4714423;60;1136719;-67
2023/10/20 15:44:07;;;;;;;5.63;2.37;;;;;;;4.58;100.00;98514.73;4930400;57;1134936;-75
2023/10/20 15:49:13;;;;;;;3.67;3.37;;;;;;;4.57;100.00;98492.95;4910251;57;1136853;-76
2023/10/20 15:54:21;;;;;;;2.33;1.87;;;;;;;4.56;100.00;98493.91;4903052;56;1136607;-79
2023/10/20 15:59:28;;;;;;;4.10;2.57;;;;;;;4.54;100.00;98497.62;4803721;59;1136852;-72
2023/10/20 16:04:33;;;;;;;5.50;2.47;;;;;;;4.54;100.00;98506.30;4910924;57;1136958;-71
2023/10/20 16:09:39;;;;;;;4.20;2.90;;;;;;;4.52;100.00;98517.38;4793468;58;1134570;-72
2023/10/20 16:14:44;;;;;;;2.87;2.23;;;;;;;4.49;100.00;98516.80;4779077;59;1137166;-73
2023/10/20 16:19:50;;;;;;;2.35;1.80;;;;;;;4.50;100.00;98523.69;4812223;59;1134909;-76
2023/10/20 16:24:56;;;;;;;3.85;2.10;;;;;;;4.51;100.00;98529.28;4915805;57;1136739;-78
2023/10/20 16:30:03;;;;;;;2.10;2.00;;;;;;;4.52;100.00;98521.30;4791556;58;1136509;-73
2023/10/20 16:35:09;;;;;;;2.30;2.20;;;;;;;4.51;100.00;98515.72;4809632;59;1136831;-73
2023/10/20 16:40:15;;;;;;;5.13;1.73;;;;;;;4.51;100.00;98517.02;4823598;57;1136791;-77
2023/10/20 16:45:21;;;;;;;1.67;1.57;;;;;;;4.49;100.00;98513.70;4998098;56;1134880;-79
2023/10/20 16:50:27;;;;;;;2.47;2.17;;;;;;;4.49;100.00;98526.79;4887791;58;1136980;-77
2023/10/20 16:55:38;;;;;;;5.13;3.93;;;;;;;4.49;100.00;98537.26;4823563;58;1136706;-73
2023/10/20 17:00:44;;;;;;;6.73;3.53;;;;;;;4.45;100.00;98534.55;4790271;59;1134660;-73
2023/10/20 17:05:49;;;;;;;5.55;3.70;;;;;;;4.45;100.00;98520.14;4790775;59;1136913;-76
2023/10/20 17:10:55;;;;;;;5.12;3.80;;;;;;;4.46;100.00;98513.13;4976991;57;1136687;-80
2023/10/20 17:16:07;;;;;;;4.03;3.60;;;;;;;4.46;100.00;98513.95;4920302;57;1137218;-72
2023/10/20 17:21:13;;;;;;;5.13;4.33;;;;;;;4.47;100.00;98513.00;4791922;57;1136687;-78
2023/10/20 17:26:18;;;;;;;3.30;3.00;;;;;;;4.45;100.00;98502.30;4733866;60;1134808;-70
2023/10/20 17:31:24;;;;;;;11.97;3.60;;;;;;;4.48;100.00;98481.11;4910445;57;1136835;-76
2023/10/20 17:36:29;;;;;;;4.57;3.50;;;;;;;4.46;100.00;98464.70;4909974;57;1138851;-77
2023/10/20 17:41:35;;;;;;;3.57;2.90;;;;;;;4.48;100.00;98463.62;4924648;58;1136747;-69
2023/10/20 17:46:40;;;;;;;8.30;3.93;;;;;;;4.49;100.00;98480.16;4908027;58;1136770;-73
2023/10/20 17:51:46;;;;;;;6.65;4.95;;;;;;;4.51;100.00;98495.25;4790081;59;1136733;-76
2023/10/20 17:56:52;;;;;;;6.40;4.27;;;;;;;4.52;100.00;98468.12;4730107;60;1137052;-74
2023/10/20 18:01:57;;;;;;;11.60;7.60;;;;;;;4.52;100.00;98479.42;4719400;60;1137203;-77
2023/10/20 18:07:03;;;;;;;13.07;6.40;;;;;;;4.57;100.00;98487.72;4767897;58;1138848;-78
2023/10/20 18:12:08;;;;;;;18.47;7.87;;;;;;;4.58;100.00;98487.23;4900504;58;1139119;-72
2023/10/20 18:17:14;;;;;;;19.00;9.30;;;;;;;4.59;100.00;98488.87;4890530;57;1139652;-77
2023/10/20 18:22:20;;;;;;;8.08;5.25;;;;;;;4.64;100.00;98472.78;4780342;59;1138907;-72
2023/10/20 18:27:25;;;;;;;7.77;5.77;;;;;;;4.65;100.00;98467.89;4723684;60;1136993;-73
2023/10/20 18:32:31;;;;;;;7.60;6.47;;;;;;;4.67;100.00;98446.34;4710786;60;1136872;-72
2023/10/20 18:37:36;;;;;;;9.88;6.80;;;;;;;4.71;100.00;98430.72;4701781;60;1136716;-69
2023/10/20 18:42:42;;;;;;;9.93;6.30;;;;;;;4.71;100.00;98432.86;4715299;60;1137146;-78
2023/10/20 18:47:48;;;;;;;7.57;6.77;;;;;;;4.74;100.00;98441.73;4731916;60;1141508;-70
2023/10/20 18:52:54;;;;;;;10.77;5.27;;;;;;;4.76;100.00;98417.55;4747985;59;1136807;-73
2023/10/20 18:58:01;;;;;;;13.75;7.72;;;;;;;4.78;100.00;98408.25;4754115;59;1138946;-65
2023/10/20 19:03:06;;;;;;;10.87;7.60;;;;;;;4.80;100.00;98435.14;4779534;58;1139362;-70
2023/10/20 19:08:12;;;;;;;8.90;6.60;;;;;;;4.79;100.00;98440.03;4839255;57;1138968;-74
2023/10/20 19:13:18;;;;;;;12.07;8.20;;;;;;;4.84;100.00;98466.66;4885120;58;1137371;-79
2023/10/20 19:18:23;;;;;;;11.67;7.20;;;;;;;4.85;100.00;98474.39;4807480;59;1138798;-77
2023/10/20 19:23:30;;;;;;;11.53;7.87;;;;;;;4.89;100.00;98435.64;4895294;57;1139010;-78
2023/10/20 19:28:37;;;;;;;14.87;8.27;;;;;;;4.92;100.00;98435.38;4733937;59;1139064;-80
2023/10/20 19:33:43;;;;;;;13.62;8.15;;;;;;;4.95;100.00;98452.97;4663140;59;1138846;-74
2023/10/20 19:38:48;;;;;;;11.20;7.73;;;;;;;4.98;100.00;98441.40;4810636;59;1139162;-73
2023/10/20 19:43:54;;;;;;;15.10;8.80;;;;;;;4.98;100.00;98430.09;4909870;57;1138831;-74
2023/10/20 19:49:00;;;;;;;13.00;9.53;;;;;;;5.00;100.00;98429.48;4762325;58;1139194;-79
2023/10/20 19:54:05;;;;;;;18.23;9.13;;;;;;;5.01;100.00;98437.20;4756814;59;1139062;-78
2023/10/20 19:59:11;;;;;;;11.57;7.87;;;;;;;5.03;100.00;98456.72;4629899;59;1139068;-76
2023/10/20 20:04:19;;;;;;;6.03;5.13;;;;;;;5.05;100.00;98459.53;4876417;57;1139135;-81
2023/10/20 20:09:25;;;;;;;11.60;7.37;;;;;;;5.10;100.00;98459.13;4802855;59;1137019;-80
2023/10/20 20:14:30;;;;;;;13.10;9.40;;;;;;;5.15;100.00;98454.33;4758341;59;1138982;-73
2023/10/20 20:19:36;;;;;;;5.33;4.90;;;;;;;5.19;100.00;98456.55;4822672;58;1138862;-73
2023/10/20 20:24:41;;;;;;;9.37;5.70;;;;;;;5.22;100.00;98447.56;4797274;58;1136716;-70
2023/10/20 20:29:47;;;;;;;6.10;4.58;;;;;;;5.24;100.00;98458.74;4919620;58;1137571;-72
2023/10/20 20:34:53;;;;;;;7.90;6.80;;;;;;;5.22;100.00;98444.47;4893445;56;1136665;-74
2023/10/20 20:39:58;;;;;;;7.47;6.67;;;;;;;5.33;100.00;98453.19;4786594;59;1137028;-68
2023/10/20 20:45:05;;;;;;;10.03;7.47;;;;;;;5.37;100.00;98465.86;4900473;58;1136872;-67
2023/10/20 20:50:12;;;;;;;6.87;6.17;;;;;;;5.40;100.00;98472.62;4877170;58;1139494;-66
2023/10/20 20:55:18;;;;;;;5.37;4.67;;;;;;;5.44;100.00;98462.22;4885959;58;1136822;-66
2023/10/20 21:00:24;;;;;;;5.50;5.00;;;;;;;5.49;100.00;98456.09;4814146;59;1137057;-66
2023/10/20 21:05:29;;;;;;;5.20;4.70;;;;;;;5.51;100.00;98455.45;4790706;58;1136952;-66
2023/10/20 21:10:35;;;;;;;4.93;4.53;;;;;;;5.52;100.00;98423.86;4782828;59;1137621;-65
2023/10/20 21:15:41;;;;;;;5.42;4.12;;;;;;;5.53;100.00;98394.05;4911509;57;1137216;-66
2023/10/20 21:20:46;;;;;;;4.73;4.23;;;;;;;5.55;100.00;98400.47;4812591;60;1136804;-66
2023/10/20 21:25:52;;;;;;;4.93;4.53;;;;;;;5.58;100.00;98423.80;4902536;57;1143462;-68
2023/10/20 21:31:05;;;;;;;4.97;4.30;;;;;;;5.61;100.00;98422.21;4905098;58;1136719;-66
2023/10/20 21:36:19;;;;;;;;;;;;;;;5.64;100.00;98378.67;4801609;59;1137737;-68
2023/10/20 21:41:21;;;;;;;7.07;4.83;;;;;;;5.65;100.00;98396.86;4809410;60;974524;-70
2023/10/20 21:46:28;;;;;;;4.80;4.37;;;;;;;5.64;100.00;98410.97;4906992;57;1134580;-68
2023/10/20 21:51:34;;;;;;;6.53;5.07;;;;;;;5.69;100.00;98441.17;4794583;59;1136886;-67
2023/10/20 21:56:40;;;;;;;7.90;5.37;;;;;;;5.73;100.00;98442.08;4904749;58;1136810;-68
2023/10/20 22:01:45;;;;;;;9.70;5.00;;;;;;;5.75;100.00;98375.05;4914468;57;1136558;-71
2023/10/20 22:06:51;;;;;;;5.90;4.85;;;;;;;5.78;100.00;98472.66;4817291;58;1144100;-72
2023/10/20 22:11:56;;;;;;;8.43;5.13;;;;;;;5.80;100.00;98440.56;4804974;58;1136940;-69
2023/10/20 22:17:02;;;;;;;10.03;4.90;;;;;;;5.85;100.00;98428.31;4903016;58;1136923;-71
2023/10/20 22:22:07;;;;;;;7.17;5.70;;;;;;;5.88;100.00;98451.66;4777022;58;1139048;-78
2023/10/20 22:27:13;;;;;;;8.17;4.83;;;;;;;5.92;100.00;98439.95;4759550;60;1136758;-78
2023/10/20 22:32:18;;;;;;;6.60;4.80;;;;;;;5.95;100.00;98451.48;4790746;59;1136471;-71
2023/10/20 22:37:24;;;;;;;7.27;5.07;;;;;;;5.96;100.00;98481.48;4789590;59;1136752;-70
2023/10/20 22:42:30;;;;;;;11.00;5.30;;;;;;;5.99;100.00;98464.16;4734066;60;1137087;-72
2023/10/20 22:47:36;;;;;;;7.07;5.27;;;;;;;6.03;100.00;98476.52;4926424;57;1138887;-74
2023/10/20 22:52:41;;;;;;;9.73;5.50;;;;;;;6.05;100.00;98478.53;4980338;56;1136829;-72
2023/10/20 22:57:47;;;;;;;6.97;4.33;;;;;;;6.05;100.00;98462.78;4983234;57;1137378;-72
2023/10/20 23:02:53;;;;;;;11.17;5.80;;;;;;;6.08;100.00;98474.80;5002686;56;1137335;-75
2023/10/20 23:07:59;;;;;;;11.07;6.43;;;;;;;6.09;100.00;98482.53;4985599;57;1138789;-75
2023/10/20 23:13:04;;;;;;;9.88;4.92;;;;;;;6.11;100.00;98491.06;4978960;56;1139314;-72
2023/10/20 23:18:10;;;;;;;9.57;5.03;;;;;;;6.13;100.00;98494.38;5000439;57;1136670;-73
2023/10/20 23:23:16;;;;;;;10.90;7.17;;;;;;;6.15;100.00;98511.30;4980757;57;1136805;-71
2023/10/20 23:28:21;;;;;;;9.40;5.40;;;;;;;6.17;100.00;98522.50;4953814;57;1138928;-75
2023/10/20 23:33:27;;;;;;;14.63;6.00;;;;;;;6.20;100.00;98531.41;4808557;60;1136883;-71
2023/10/20 23:38:33;;;;;;;11.23;6.40;;;;;;;6.24;100.00;98562.98;4789522;59;1138945;-74
2023/10/20 23:43:38;;;;;;;8.95;5.40;;;;;;;6.27;100.00;98565.30;4946303;57;1138712;-69
2023/10/20 23:48:44;;;;;;;10.93;5.85;;;;;;;6.30;100.00;98572.42;4988391;57;1136871;-71
2023/10/20 23:53:51;;;;;;;11.66;6.64;;;;;;;6.32;100.00;98574.91;5021714;56;1138904;-73
2023/10/20 23:58:56;;;;;;;8.28;5.72;;;;;;;6.34;100.00;98561.99;4976798;56;1138866;-73
